< < Back
Terminal Aerodrome Forecast


Current Version              Previous Versions:   1  2  3  4  5  6  7  8  9  

Terminal Aerodrome Forecast

701
FTUS44 KMRX 291122
TAFCHA
TAF
KCHA 291122Z 2912/3012 00000KT P6SM SCT120 BKN250
     FM291500 34006KT P6SM SCT060 BKN150
     FM300000 VRB03KT P6SM FEW070 SCT150=



Latest METAR

457
SAUS80 KWBC 301000 RRA
MTRCHA
METAR KCHA 300953Z 00000KT 10SM SCT050 BKN250 BKN300 22/18 A3003 RMK AO2
SLP159 FIRST T02170178


USA.gov is the U.S. government's official web portal to all federal, state and local government web resources and services.